Destin, FL

8:24 PM CDT on August 22, 2014 (GMT -0500)
Destin-Fort Walton Beach | Change Station
CLOSE
Current Station
Airport
Location: Destin,
Elevation: 23 ft
Nearby Weather Stations
Active Advisory: Heat Advisory

Elev 23 ft 30.39 °N, 86.47 °W | Updated 31 minutes ago

Clear
Clear
88 °F
Feels Like 104 °F
N
4
Wind Variable Wind from Variable

Today
High -- | Low -- °F
--% Chance of Precip.
Yesterday
High -- | Low -- °F
Precip. -- in
6:16 AM 7:20 PM
Waning Crescent, 6% visible
Pressure 29.99 in
Visibility 10.0 miles
Clouds Clear
Heat Index 104 °F
Dew Point 80 °F
Humidity 77%
Rainfall 0.00 in
Snow Depth Not available.
UV 0 out of 12
Pollen 7.70 out of 12
PM2.5 Moderate
Flu Activity Not available.
METAR KDTS 230053Z AUTO VRB03KT 10SM CLR 31/27 A2999 RMK AO2 SLP156 T03110267 TSNO

More Conditions Fewer Conditions

Pressure 29.99 in
Visibility 10.0 miles
Clouds Clear
Heat Index 104 °F
Dew Point 80 °F
Humidity 77%
Rainfall 0.00 in
Snow Depth Not available.
UV 0 out of 12
Pollen 7.70 out of 12
PM2.5 Moderate
Flu Activity Not available.
METAR KDTS 230053Z AUTO VRB03KT 10SM CLR 31/27 A2999 RMK AO2 SLP156 T03110267 TSNO

More Conditions Fewer Conditions

10-Day Weather Forecast

Almanac

Astronomy

Aug. 22, 2014 Rise Set
Actual Time 6:16 AM CDT 7:20 PM CDT
Civil Twilight 5:51 AM CDT 7:44 PM CDT
Nautical Twilight 5:22 AM CDT 8:14 PM CDT
Astronomical Twilight 4:52 AM CDT 8:44 PM CDT
Moon 3:44 AM CDT (8/22) 5:24 PM CDT (8/22)
Length of Visible Light 13h 53m
Length of Day
13h 03m
Tomorrow will be 1m 40s shorter.
Waning Crescent, 6% of the Moon is Illuminated
Today
Waning Crescent
Aug 25
New
Sep 2
First Quarter
Sep 8
Full
Sep 15
Last Quarter

Today's Extremes

State Highs State Lows

Community

WunderPhotos

Upload Photos

1,746,337 photos uploaded!

WunderBlogs® & News

Nearby

Air Quality

  Air Quality AQ Index Pollutant
Yesterday Moderate
PM2.5
Yesterday Good
OZONE
Current Moderate
PM2.5
Friday Moderate
PM2.5
Friday Good
OZONE
Saturday Moderate
PM2.5
Saturday Good
OZONE
Sunday Moderate
PM2.5
Sunday Good
OZONE
Monday Moderate
PM2.5
Monday Good
OZONE

Snow Depth

Station Depth Elevation
No new snow has been reported.

Earthquake Activity

City Distance Mag. Time & Date
No recent earthquake activity has been reported nearby.
Minimum magnitude displayed is 2.5.

Coastal Water Temperatures

Place Temperature
No Stations Reporting

Nearby Weather Stations